Malaysia Virtual Airlines Airport Information Service

Sepang/KL International Airport

ICAO: WMKK Country: Malaysia
Latitude: 2.74558 Longitude: 101.71
Latest Arrival : MH1437 (WMKL-WMKK) Latest Departure : MHC61 (WMKK-YPAD)


WX CaptureLIVE
Data provided by noaa.gov | Fetched at 06:04:07

METAR : WMKK 290530Z 29005KT 210V350 9999 SCT018 32/25 Q1007 NOSIG

TAF : WMKK 290500Z 2906/3012 32006KT 9999 SCT018 TEMPO 2906/2910 28008G20KT


Runway Data for WMKK
Data provided by openaviationdata.com

Runway ID Mag Var Hdg Length Elevation Surface ILS Freq ILS Id ILS Slope
14L 0 146° 13575 ft 70 ft Concrete 108.5 IEL 3
14R 0 146° 13353 ft 70 ft Concrete 110.7 IWR 3
32L 0 326° 13353 ft 70 ft Concrete 111.9 IWL 3
32R 0 326° 13575 ft 70 ft Concrete 109.1 IER 3
33 0 326° 13353 ft 27 ft Concrete 110.7 IQ 3
15 0 146° 13353 ft 27 ft Concrete 110.7 IT 3

Sepang/KL International Airport, Malaysia
Use only for reference purposes



Not for navigational purposes.